createdAt,value
2023-05-08T00:09:07.654Z,7.06
2023-05-08T00:29:10.350Z,6.91
2023-05-08T00:49:15.688Z,7.03
2023-05-08T01:09:18.357Z,6.86
2023-05-08T01:29:21.089Z,6.28
2023-05-08T01:49:24.021Z,6.53
2023-05-08T02:09:26.661Z,6.53
2023-05-08T02:29:29.320Z,6.56
2023-05-08T02:49:32.144Z,6.71
2023-05-08T03:09:34.778Z,6.40
2023-05-08T03:29:37.421Z,6.43
2023-05-08T03:49:41.059Z,6.74
2023-05-08T04:09:47.129Z,6.51
2023-05-08T04:29:49.778Z,6.19
2023-05-08T04:49:52.619Z,6.65
2023-05-08T05:09:55.263Z,6.87
2023-05-08T05:29:58.320Z,6.66
2023-05-08T05:50:00.953Z,6.47
2023-05-08T06:10:03.856Z,6.68
2023-05-08T06:30:09.561Z,6.79
2023-05-08T06:50:12.867Z,7.41
2023-05-08T07:10:15.585Z,8.82
2023-05-08T07:30:18.272Z,8.65
2023-05-08T07:50:20.911Z,10.63
2023-05-08T08:10:23.612Z,9.29
2023-05-08T08:30:26.532Z,10.42
2023-05-08T08:50:29.189Z,11.63
2023-05-08T09:30:52.723Z,12.75
2023-05-08T10:51:46.253Z,12.39
2023-05-08T11:11:48.872Z,14.06
2023-05-08T12:12:45.160Z,13.16
2023-05-08T14:55:36.190Z,13.42
2023-05-08T16:16:30.058Z,13.38
2023-05-08T16:36:32.828Z,12.11
2023-05-08T16:56:35.622Z,12.29
2023-05-08T17:16:38.393Z,10.88
2023-05-08T17:36:41.136Z,10.60
2023-05-08T17:56:44.130Z,10.37
2023-05-08T18:16:47.036Z,9.79
2023-05-08T18:36:52.037Z,9.05
2023-05-08T18:56:55.035Z,8.09
2023-05-08T19:16:58.628Z,7.56
2023-05-08T19:37:01.628Z,7.53
2023-05-08T19:57:11.529Z,7.56
2023-05-08T20:17:14.383Z,7.34
2023-05-08T20:37:20.245Z,7.22
2023-05-08T20:57:23.320Z,7.02
2023-05-08T21:17:28.932Z,6.73
2023-05-08T21:37:32.911Z,6.50
2023-05-08T21:57:35.657Z,6.36
2023-05-08T22:17:39.051Z,6.06
2023-05-08T22:37:41.880Z,6.11
2023-05-08T22:57:44.897Z,5.90
2023-05-08T23:17:47.955Z,5.45
2023-05-08T23:37:50.811Z,5.16
2023-05-08T23:57:53.750Z,5.03
